createdAt,value
2022-12-06T00:01:08.549Z,91.50
2022-12-06T00:03:37.843Z,91.60
2022-12-06T00:06:07.536Z,91.60
2022-12-06T00:08:37.043Z,91.60
2022-12-06T00:11:06.324Z,91.60
2022-12-06T00:13:34.073Z,91.50
2022-12-06T00:16:03.800Z,91.50
2022-12-06T00:18:32.063Z,91.60
2022-12-06T00:21:06.894Z,91.50
2022-12-06T00:23:38.046Z,91.50
2022-12-06T00:26:06.756Z,91.50
2022-12-06T00:28:35.002Z,91.50
2022-12-06T00:31:04.972Z,91.50
2022-12-06T00:33:34.261Z,91.60
2022-12-06T00:36:04.572Z,91.50
2022-12-06T00:38:32.372Z,91.50
2022-12-06T00:41:03.563Z,91.50
2022-12-06T00:43:31.426Z,91.50
2022-12-06T00:45:59.473Z,91.50
2022-12-06T00:48:27.609Z,91.50
2022-12-06T00:50:55.707Z,91.50
2022-12-06T00:53:24.365Z,91.60
2022-12-06T00:55:52.587Z,91.50
2022-12-06T00:58:21.908Z,91.50
2022-12-06T01:00:49.910Z,91.50
2022-12-06T01:03:17.928Z,91.50
2022-12-06T01:05:47.117Z,91.50
2022-12-06T01:08:15.726Z,91.50
2022-12-06T01:10:43.985Z,91.50
2022-12-06T01:13:11.770Z,91.60
2022-12-06T01:15:40.787Z,91.50
2022-12-06T01:18:08.913Z,91.50
2022-12-06T01:20:36.763Z,91.60
2022-12-06T01:23:04.728Z,91.50
2022-12-06T01:25:35.889Z,91.90
2022-12-06T01:28:04.757Z,91.60
2022-12-06T01:30:32.793Z,91.50
2022-12-06T01:33:01.936Z,91.60
2022-12-06T01:35:29.664Z,91.60
2022-12-06T01:38:00.501Z,91.60
2022-12-06T01:40:38.352Z,91.50
2022-12-06T01:43:06.832Z,91.60
2022-12-06T01:45:34.880Z,91.60
2022-12-06T01:48:04.207Z,91.60
2022-12-06T01:50:33.674Z,91.60
2022-12-06T01:53:05.189Z,91.50
2022-12-06T01:55:37.016Z,91.60
2022-12-06T01:58:11.070Z,91.60
2022-12-06T02:00:39.236Z,91.60
2022-12-06T02:03:16.900Z,91.60
2022-12-06T02:05:45.291Z,91.60
2022-12-06T02:08:14.515Z,91.60
2022-12-06T02:10:42.331Z,91.60
2022-12-06T02:13:11.363Z,91.60
2022-12-06T02:15:48.876Z,91.60
2022-12-06T02:18:25.822Z,91.60
2022-12-06T02:21:01.838Z,91.60
2022-12-06T02:23:48.688Z,91.60
2022-12-06T02:26:29.242Z,91.60
2022-12-06T02:29:36.437Z,91.60
2022-12-06T02:32:11.167Z,91.60
2022-12-06T02:34:55.856Z,91.60
2022-12-06T02:37:28.785Z,91.60
2022-12-06T02:40:01.073Z,91.60
2022-12-06T02:42:34.682Z,91.60
2022-12-06T02:45:05.674Z,91.60
2022-12-06T02:47:38.013Z,91.60
2022-12-06T02:50:10.229Z,91.60
2022-12-06T02:52:42.137Z,91.60
2022-12-06T02:55:12.749Z,91.70
2022-12-06T02:57:43.791Z,91.60
2022-12-06T03:00:32.932Z,91.60
2022-12-06T03:03:22.162Z,91.70
2022-12-06T03:06:04.315Z,91.60
2022-12-06T03:08:41.809Z,91.60
2022-12-06T03:11:09.941Z,91.60
2022-12-06T03:13:48.725Z,92.00
2022-12-06T03:16:25.181Z,91.60
2022-12-06T03:19:00.722Z,91.70
2022-12-06T03:21:33.512Z,91.70
2022-12-06T03:24:01.461Z,91.60
2022-12-06T03:26:33.397Z,91.60
2022-12-06T03:29:04.668Z,91.60
2022-12-06T03:31:35.272Z,91.60
2022-12-06T03:34:11.256Z,91.70
2022-12-06T03:36:40.543Z,91.60
2022-12-06T03:39:10.167Z,91.60
2022-12-06T03:41:43.858Z,91.70
2022-12-06T03:44:11.776Z,91.60
2022-12-06T03:46:45.216Z,91.70
2022-12-06T03:49:18.809Z,91.70
2022-12-06T03:51:47.050Z,91.70
2022-12-06T03:54:14.831Z,91.70
2022-12-06T03:56:42.585Z,91.70
2022-12-06T03:59:11.593Z,91.60
2022-12-06T04:01:40.166Z,91.70
2022-12-06T04:04:07.984Z,91.60
2022-12-06T04:06:37.203Z,91.60
2022-12-06T04:09:19.217Z,91.70
2022-12-06T04:11:47.240Z,91.60
2022-12-06T04:14:15.152Z,91.70
2022-12-06T04:17:00.409Z,91.70
2022-12-06T04:19:28.466Z,91.60
2022-12-06T04:22:11.453Z,91.70
2022-12-06T04:24:39.226Z,91.70
2022-12-06T04:27:20.969Z,91.70
2022-12-06T04:30:06.129Z,91.70
2022-12-06T04:32:51.746Z,91.70
2022-12-06T04:35:37.243Z,91.70
2022-12-06T04:38:23.914Z,91.70
2022-12-06T04:40:51.921Z,91.70
2022-12-06T04:43:37.288Z,91.70
2022-12-06T04:46:07.003Z,91.70
2022-12-06T04:48:34.819Z,91.70
2022-12-06T04:51:02.541Z,91.70
2022-12-06T04:53:31.721Z,91.70
2022-12-06T04:55:59.499Z,91.70
2022-12-06T04:58:27.688Z,91.70
2022-12-06T05:00:56.089Z,91.70
2022-12-06T05:03:23.855Z,91.70
2022-12-06T05:05:51.677Z,91.70
2022-12-06T05:08:20.107Z,91.70
2022-12-06T05:10:50.158Z,91.70
2022-12-06T05:13:19.813Z,91.70
2022-12-06T05:15:52.991Z,91.70
2022-12-06T05:18:21.564Z,91.70
2022-12-06T05:20:49.530Z,91.70
2022-12-06T05:23:17.944Z,91.70
2022-12-06T05:25:45.757Z,91.70
2022-12-06T05:28:14.961Z,92.00
2022-12-06T05:30:42.710Z,91.70
2022-12-06T05:33:10.447Z,91.70
2022-12-06T05:35:40.540Z,91.70
2022-12-06T05:38:09.444Z,91.60
2022-12-06T05:40:40.625Z,91.60
2022-12-06T05:43:08.384Z,91.60
2022-12-06T05:45:37.796Z,91.60
2022-12-06T05:48:06.912Z,91.60
2022-12-06T05:50:34.826Z,91.60
2022-12-06T05:53:02.717Z,91.60
2022-12-06T05:55:30.785Z,91.70
2022-12-06T05:57:58.683Z,91.60
2022-12-06T06:00:26.922Z,91.70
2022-12-06T06:02:56.567Z,91.70
2022-12-06T06:05:26.158Z,91.70
2022-12-06T06:07:54.803Z,91.60
2022-12-06T06:10:26.360Z,91.60
2022-12-06T06:12:54.168Z,91.70
2022-12-06T06:15:30.275Z,91.60
2022-12-06T06:18:02.879Z,91.60
2022-12-06T06:20:33.760Z,91.60
2022-12-06T06:23:04.767Z,91.60
2022-12-06T06:25:32.528Z,91.60
2022-12-06T06:28:00.434Z,91.60
2022-12-06T06:30:28.261Z,91.60
2022-12-06T06:32:55.975Z,91.60
2022-12-06T06:35:25.373Z,91.60
2022-12-06T06:37:53.445Z,91.60
2022-12-06T06:40:21.733Z,91.60
2022-12-06T06:42:49.488Z,91.70
2022-12-06T06:45:18.417Z,91.70
2022-12-06T06:47:46.167Z,91.60
2022-12-06T06:50:14.006Z,91.70
2022-12-06T06:52:43.063Z,91.70
2022-12-06T06:55:10.836Z,91.60
2022-12-06T06:57:40.954Z,91.70
2022-12-06T07:00:10.188Z,91.70
2022-12-06T07:02:39.540Z,91.70
2022-12-06T07:05:09.419Z,91.70
2022-12-06T07:07:37.615Z,91.60
2022-12-06T07:10:08.495Z,91.60
2022-12-06T07:12:36.244Z,91.70
2022-12-06T07:15:04.224Z,91.60
2022-12-06T07:17:31.948Z,91.70
2022-12-06T07:20:00.020Z,91.60
2022-12-06T07:22:28.032Z,91.70
2022-12-06T07:24:55.773Z,91.70
2022-12-06T07:27:24.859Z,91.60
2022-12-06T07:29:52.528Z,91.60
2022-12-06T07:32:20.284Z,91.70
2022-12-06T07:34:47.962Z,91.70
2022-12-06T07:37:18.976Z,91.70
2022-12-06T07:39:46.869Z,91.70
2022-12-06T07:42:31.975Z,91.70
2022-12-06T07:45:07.218Z,91.70
2022-12-06T07:47:35.942Z,91.70
2022-12-06T07:50:05.376Z,91.70
2022-12-06T07:52:34.460Z,91.70
2022-12-06T07:55:02.843Z,91.70
2022-12-06T07:57:30.642Z,91.70
2022-12-06T07:59:58.821Z,91.70
2022-12-06T08:02:29.030Z,91.70
2022-12-06T08:04:58.389Z,91.70
2022-12-06T08:07:26.800Z,91.70
2022-12-06T08:09:54.984Z,91.70
2022-12-06T08:12:23.218Z,91.70
2022-12-06T08:14:55.346Z,91.70
2022-12-06T08:17:30.157Z,91.70
2022-12-06T08:19:58.147Z,91.70
2022-12-06T08:22:26.109Z,91.70
2022-12-06T08:24:53.768Z,91.70
2022-12-06T08:27:21.678Z,91.70
2022-12-06T08:29:49.413Z,91.70
2022-12-06T08:32:17.153Z,91.70
2022-12-06T08:34:46.339Z,91.70
2022-12-06T08:37:14.016Z,91.70
2022-12-06T08:39:41.807Z,91.80
2022-12-06T08:42:12.488Z,91.80
2022-12-06T08:44:40.346Z,91.80
2022-12-06T08:47:08.150Z,91.80
2022-12-06T08:49:36.055Z,91.80
2022-12-06T08:52:05.450Z,91.80
2022-12-06T08:54:35.090Z,91.70
2022-12-06T08:57:02.862Z,91.70
2022-12-06T08:59:30.579Z,91.70
2022-12-06T09:01:58.469Z,91.80
2022-12-06T09:04:27.257Z,91.70
2022-12-06T09:06:55.021Z,91.70
2022-12-06T09:09:24.079Z,91.80
2022-12-06T09:11:51.763Z,91.80
2022-12-06T09:14:22.338Z,91.80
2022-12-06T09:16:51.219Z,91.80
2022-12-06T09:19:19.716Z,91.80
2022-12-06T09:21:47.487Z,91.80
2022-12-06T09:24:17.390Z,91.80
2022-12-06T09:26:46.918Z,91.80
2022-12-06T09:29:15.366Z,91.80
2022-12-06T09:31:43.116Z,91.80
2022-12-06T09:34:12.775Z,91.80
2022-12-06T09:36:44.491Z,91.80
2022-12-06T09:39:17.072Z,91.90
2022-12-06T09:42:14.241Z,91.80
2022-12-06T09:45:00.624Z,91.80
2022-12-06T09:47:39.120Z,91.80
2022-12-06T09:50:17.264Z,91.80
2022-12-06T09:53:02.901Z,91.80
2022-12-06T09:55:44.233Z,91.80
2022-12-06T09:58:24.259Z,91.70
2022-12-06T10:01:03.536Z,91.80
2022-12-06T10:03:48.875Z,91.80
2022-12-06T10:06:20.256Z,91.80
2022-12-06T10:09:22.944Z,91.80
2022-12-06T10:12:08.778Z,91.80
2022-12-06T10:14:52.727Z,91.80
2022-12-06T10:17:29.266Z,91.80
2022-12-06T10:20:06.035Z,91.70
2022-12-06T10:22:47.517Z,91.80
2022-12-06T10:25:23.758Z,91.70
2022-12-06T10:28:01.513Z,91.80
2022-12-06T10:30:31.300Z,91.80
2022-12-06T10:33:09.592Z,91.80
2022-12-06T10:35:43.249Z,91.80
2022-12-06T10:38:28.476Z,91.80
2022-12-06T10:41:06.059Z,91.80
2022-12-06T10:43:42.563Z,91.90
2022-12-06T10:46:34.693Z,91.90
2022-12-06T10:49:09.993Z,91.90
2022-12-06T10:51:42.638Z,91.90
2022-12-06T10:54:19.428Z,91.90
2022-12-06T10:56:50.015Z,91.90
2022-12-06T10:59:26.524Z,91.90
2022-12-06T11:02:01.408Z,91.90
2022-12-06T11:04:35.851Z,91.90
2022-12-06T11:07:09.077Z,91.90
2022-12-06T11:09:41.597Z,91.90
2022-12-06T11:12:26.638Z,91.90
2022-12-06T11:15:05.662Z,91.90
2022-12-06T11:17:40.543Z,91.90
2022-12-06T11:20:17.512Z,91.90
2022-12-06T11:22:51.354Z,91.90
2022-12-06T11:25:26.619Z,91.90
2022-12-06T11:28:00.158Z,91.90
2022-12-06T11:30:31.238Z,92.20
2022-12-06T11:33:02.756Z,91.90
2022-12-06T11:35:30.601Z,91.90
2022-12-06T11:38:02.432Z,91.90
2022-12-06T11:40:33.529Z,91.90
2022-12-06T11:43:03.656Z,91.90
2022-12-06T11:45:34.422Z,91.90
2022-12-06T11:48:14.093Z,91.90
2022-12-06T11:50:43.455Z,91.90
2022-12-06T11:53:18.161Z,91.90
2022-12-06T11:55:49.920Z,91.90
2022-12-06T11:58:25.131Z,91.90
2022-12-06T12:00:59.688Z,91.90
2022-12-06T12:03:31.020Z,92.20
2022-12-06T12:06:21.061Z,91.90
2022-12-06T12:08:55.121Z,91.90
2022-12-06T12:11:25.744Z,91.90
2022-12-06T12:13:57.285Z,91.90
2022-12-06T12:16:27.463Z,91.90
2022-12-06T12:18:59.229Z,91.90
2022-12-06T12:21:33.521Z,91.90
2022-12-06T12:24:01.732Z,91.90
2022-12-06T12:26:42.158Z,91.90
2022-12-06T12:29:17.909Z,91.90
2022-12-06T12:31:55.329Z,91.90
2022-12-06T12:34:26.349Z,92.20
2022-12-06T12:36:57.051Z,91.80
2022-12-06T12:39:35.332Z,91.90
2022-12-06T12:42:03.772Z,91.90
2022-12-06T12:44:38.652Z,91.90
2022-12-06T12:47:17.701Z,91.90
2022-12-06T12:50:00.983Z,91.90
2022-12-06T12:52:31.360Z,91.90
2022-12-06T12:55:02.140Z,91.90
2022-12-06T12:57:30.330Z,92.00
2022-12-06T12:59:58.590Z,92.00
2022-12-06T13:02:30.514Z,92.00
2022-12-06T13:07:54.569Z,91.90
2022-12-06T13:10:31.415Z,91.90
2022-12-06T13:13:02.532Z,91.90
2022-12-06T13:15:35.258Z,91.90
2022-12-06T13:18:12.386Z,91.80
2022-12-06T13:20:42.244Z,91.80
2022-12-06T13:23:14.326Z,91.90
2022-12-06T13:25:44.141Z,91.90
2022-12-06T13:28:19.320Z,91.90
2022-12-06T13:30:51.461Z,91.80
2022-12-06T13:33:22.191Z,91.90
2022-12-06T13:35:56.410Z,91.90
2022-12-06T13:38:30.212Z,91.90
2022-12-06T13:40:59.144Z,92.20
2022-12-06T13:44:00.042Z,91.90
2022-12-06T13:46:34.111Z,91.90
2022-12-06T13:49:04.666Z,91.90
2022-12-06T13:51:50.783Z,91.90
2022-12-06T13:54:33.787Z,91.90
2022-12-06T13:57:04.902Z,91.90
2022-12-06T13:59:40.564Z,91.90
2022-12-06T14:02:43.004Z,91.90
2022-12-06T14:05:44.039Z,91.90
2022-12-06T14:08:14.417Z,91.90
2022-12-06T14:10:42.129Z,91.90
2022-12-06T14:13:16.809Z,91.80
2022-12-06T14:15:48.457Z,91.90
2022-12-06T14:18:21.884Z,91.80
2022-12-06T14:20:52.225Z,91.80
2022-12-06T14:23:34.436Z,91.80
2022-12-06T14:26:22.255Z,91.80
2022-12-06T14:28:51.761Z,91.80
2022-12-06T14:31:24.518Z,91.80
2022-12-06T14:33:53.149Z,91.80
2022-12-06T14:36:24.817Z,91.80
2022-12-06T14:38:58.788Z,91.80
2022-12-06T14:41:53.017Z,91.70
2022-12-06T14:44:22.165Z,91.70
2022-12-06T14:46:50.588Z,91.70
2022-12-06T14:49:50.772Z,91.70
2022-12-06T14:52:21.233Z,91.70
2022-12-06T14:54:52.152Z,91.80
2022-12-06T14:57:31.830Z,91.80
2022-12-06T15:00:17.164Z,91.80
2022-12-06T15:03:23.767Z,91.80
2022-12-06T15:06:09.142Z,91.80
2022-12-06T15:08:39.386Z,91.80
2022-12-06T15:11:42.849Z,91.80
2022-12-06T15:14:15.982Z,91.80
2022-12-06T15:16:46.291Z,91.90
2022-12-06T15:19:15.824Z,91.70
2022-12-06T15:21:43.644Z,91.70
2022-12-06T15:24:22.082Z,91.70
2022-12-06T15:26:51.331Z,91.70
2022-12-06T15:29:19.795Z,91.70
2022-12-06T15:31:50.578Z,91.70
2022-12-06T15:34:23.538Z,91.70
2022-12-06T15:37:09.064Z,91.70
2022-12-06T15:39:39.947Z,91.60
2022-12-06T15:42:17.007Z,91.40
2022-12-06T15:44:49.067Z,91.20
2022-12-06T15:47:17.238Z,91.10
2022-12-06T15:49:45.382Z,91.00
2022-12-06T15:52:16.971Z,91.00
2022-12-06T15:54:45.010Z,91.00
2022-12-06T15:57:15.044Z,91.00
2022-12-06T15:59:42.926Z,91.00
2022-12-06T16:02:15.795Z,91.10
2022-12-06T16:04:44.266Z,91.00
2022-12-06T16:07:13.405Z,91.00
2022-12-06T16:09:41.173Z,91.00
2022-12-06T16:12:10.324Z,91.00
2022-12-06T16:14:39.323Z,91.00
2022-12-06T16:17:07.064Z,91.00
2022-12-06T16:19:48.741Z,91.10
2022-12-06T16:22:17.573Z,91.10
2022-12-06T16:24:46.226Z,91.10
2022-12-06T16:27:16.013Z,91.10
2022-12-06T16:29:45.040Z,91.00
2022-12-06T16:32:12.706Z,91.00
2022-12-06T16:34:40.452Z,91.00
2022-12-06T16:37:08.144Z,91.00
2022-12-06T16:39:36.193Z,91.00
2022-12-06T16:42:05.328Z,90.90
2022-12-06T16:44:33.219Z,91.00
2022-12-06T16:47:02.386Z,91.10
2022-12-06T16:49:49.358Z,91.10
2022-12-06T16:52:17.744Z,91.00
2022-12-06T16:54:46.251Z,91.00
2022-12-06T16:57:15.297Z,91.20
2022-12-06T16:59:43.622Z,91.30
2022-12-06T17:02:26.552Z,91.40
2022-12-06T17:04:54.991Z,91.50
2022-12-06T17:07:22.930Z,91.50
2022-12-06T17:09:50.802Z,91.50
2022-12-06T17:12:18.858Z,91.40
2022-12-06T17:14:47.260Z,91.40
2022-12-06T17:17:16.480Z,91.40
2022-12-06T17:19:45.815Z,91.50
2022-12-06T17:22:16.094Z,91.50
2022-12-06T17:24:43.890Z,91.50
2022-12-06T17:27:14.599Z,91.50
2022-12-06T17:29:43.483Z,91.50
2022-12-06T17:32:11.751Z,91.50
2022-12-06T17:34:42.717Z,91.50
2022-12-06T17:37:17.829Z,91.50
2022-12-06T17:39:45.586Z,91.40
2022-12-06T17:42:33.556Z,91.80
2022-12-06T17:45:03.514Z,91.40
2022-12-06T17:47:31.573Z,91.40
2022-12-06T17:49:59.669Z,91.40
2022-12-06T17:52:29.107Z,91.40
2022-12-06T17:54:56.837Z,91.40
2022-12-06T17:57:24.575Z,91.40
2022-12-06T17:59:52.327Z,91.40
2022-12-06T18:02:25.620Z,91.40
2022-12-06T18:04:55.255Z,91.40
2022-12-06T18:07:23.194Z,91.40
2022-12-06T18:09:52.293Z,91.40
2022-12-06T18:12:20.228Z,91.40
2022-12-06T18:14:48.144Z,91.40
2022-12-06T18:17:15.862Z,91.30
2022-12-06T18:19:46.638Z,91.30
2022-12-06T18:22:15.387Z,91.20
2022-12-06T18:24:43.266Z,91.20
2022-12-06T18:27:12.797Z,91.20
2022-12-06T18:29:40.560Z,91.20
2022-12-06T18:32:08.324Z,91.10
2022-12-06T18:34:36.415Z,91.20
2022-12-06T18:37:04.189Z,91.30
2022-12-06T18:39:32.080Z,91.60
2022-12-06T18:42:00.903Z,91.50
2022-12-06T18:44:30.121Z,91.20
2022-12-06T18:46:57.812Z,91.20
2022-12-06T18:49:25.557Z,91.10
2022-12-06T18:51:53.489Z,91.10
2022-12-06T18:54:21.715Z,91.10
2022-12-06T18:56:49.450Z,91.10
2022-12-06T18:59:17.206Z,91.10
2022-12-06T19:01:46.320Z,91.10
2022-12-06T19:04:16.493Z,91.00
2022-12-06T19:06:46.790Z,91.00
2022-12-06T19:09:16.417Z,91.00
2022-12-06T19:11:46.599Z,91.00
2022-12-06T19:14:15.390Z,91.00
2022-12-06T19:16:45.878Z,90.90
2022-12-06T19:19:17.668Z,90.90
2022-12-06T19:21:47.550Z,91.00
2022-12-06T19:24:20.266Z,91.10
2022-12-06T19:26:48.627Z,91.20
2022-12-06T19:29:17.758Z,91.20
2022-12-06T19:31:47.315Z,91.30
2022-12-06T19:34:20.079Z,91.30
2022-12-06T19:36:49.781Z,91.30
2022-12-06T19:39:17.879Z,91.30
2022-12-06T19:42:03.968Z,91.60
2022-12-06T19:44:31.791Z,91.30
2022-12-06T19:47:01.682Z,91.30
2022-12-06T19:49:31.283Z,91.30
2022-12-06T19:51:59.033Z,91.30
2022-12-06T19:54:28.012Z,91.30
2022-12-06T19:56:57.291Z,91.30
2022-12-06T19:59:29.849Z,91.30
2022-12-06T20:01:58.737Z,91.30
2022-12-06T20:04:28.690Z,91.30
2022-12-06T20:06:59.685Z,91.30
2022-12-06T20:09:29.378Z,91.30
2022-12-06T20:12:02.669Z,91.30
2022-12-06T20:14:33.649Z,91.30
2022-12-06T20:17:01.548Z,91.30
2022-12-06T20:19:31.992Z,91.30
2022-12-06T20:22:01.127Z,91.30
2022-12-06T20:24:29.273Z,91.30
2022-12-06T20:27:00.262Z,91.30
2022-12-06T20:29:32.413Z,91.30
2022-12-06T20:32:03.533Z,91.30
2022-12-06T20:34:34.600Z,91.20
2022-12-06T20:37:07.698Z,91.20
2022-12-06T20:39:36.510Z,91.20
2022-12-06T20:42:05.630Z,91.20
2022-12-06T20:44:34.089Z,91.20
2022-12-06T20:47:02.358Z,91.20
2022-12-06T20:49:31.428Z,91.20
2022-12-06T20:52:01.952Z,91.20
2022-12-06T20:54:31.297Z,91.30
2022-12-06T20:56:59.113Z,91.20
2022-12-06T20:59:27.301Z,91.20
2022-12-06T21:01:55.525Z,91.30
2022-12-06T21:04:23.301Z,91.20
2022-12-06T21:06:51.084Z,91.30
2022-12-06T21:09:19.109Z,91.30
2022-12-06T21:11:50.437Z,91.30
2022-12-06T21:14:21.170Z,91.30
2022-12-06T21:16:49.153Z,91.30
2022-12-06T21:19:20.521Z,91.30
2022-12-06T21:21:51.399Z,91.40
2022-12-06T21:24:21.172Z,91.30
2022-12-06T21:26:50.413Z,91.40
2022-12-06T21:29:23.678Z,91.40
2022-12-06T21:31:56.592Z,91.40
2022-12-06T21:34:30.305Z,91.40
2022-12-06T21:37:01.621Z,91.40
2022-12-06T21:39:29.380Z,91.40
2022-12-06T21:41:58.512Z,91.40
2022-12-06T21:44:26.414Z,91.40
2022-12-06T21:46:54.764Z,91.40
2022-12-06T21:49:22.603Z,91.40
2022-12-06T21:51:54.875Z,91.40
2022-12-06T21:54:26.426Z,91.40
2022-12-06T21:56:54.341Z,91.40
2022-12-06T21:59:24.222Z,91.40
2022-12-06T22:01:52.589Z,91.40
2022-12-06T22:04:20.477Z,91.40
2022-12-06T22:06:48.435Z,91.40
2022-12-06T22:09:16.151Z,91.40
2022-12-06T22:11:44.230Z,91.40
2022-12-06T22:14:12.079Z,91.50
2022-12-06T22:16:42.311Z,91.50
2022-12-06T22:19:10.274Z,91.50
2022-12-06T22:21:38.613Z,91.50
2022-12-06T22:24:06.685Z,91.80
2022-12-06T22:26:34.558Z,91.50
2022-12-06T22:29:02.585Z,91.50
2022-12-06T22:31:33.443Z,91.50
2022-12-06T22:34:03.309Z,91.50
2022-12-06T22:36:31.733Z,91.50
2022-12-06T22:39:01.616Z,91.50
2022-12-06T22:41:30.282Z,91.50
2022-12-06T22:43:59.767Z,91.50
2022-12-06T22:46:28.090Z,91.50
2022-12-06T22:48:56.400Z,91.50
2022-12-06T22:51:27.402Z,91.50
2022-12-06T22:53:58.063Z,91.40
2022-12-06T22:56:26.426Z,91.50
2022-12-06T22:58:54.209Z,91.50
2022-12-06T23:01:24.988Z,91.80
2022-12-06T23:03:54.102Z,91.50
2022-12-06T23:06:24.227Z,91.50
2022-12-06T23:08:53.772Z,91.50
2022-12-06T23:11:23.366Z,91.60
2022-12-06T23:13:51.474Z,91.50
2022-12-06T23:16:21.222Z,91.60
2022-12-06T23:18:49.786Z,91.50
2022-12-06T23:21:19.771Z,91.60
2022-12-06T23:23:49.737Z,91.50
2022-12-06T23:26:21.308Z,91.60
2022-12-06T23:28:49.505Z,91.50
2022-12-06T23:31:19.062Z,91.50
2022-12-06T23:33:47.547Z,91.40
2022-12-06T23:36:17.669Z,91.50
2022-12-06T23:38:46.100Z,91.60
2022-12-06T23:41:15.373Z,91.50
2022-12-06T23:43:44.892Z,91.60
2022-12-06T23:46:16.746Z,91.60
2022-12-06T23:48:48.320Z,91.50
2022-12-06T23:51:18.500Z,91.50
2022-12-06T23:53:50.188Z,91.50
2022-12-06T23:56:19.853Z,91.50
2022-12-06T23:58:50.238Z,91.60
